sensor_id;sensor_type;location;lat;lon;timestamp;pressure;altitude;pressure_sealevel;temperature;humidity
14253;BME280;7210;51.502;10.722;2023-02-16T00:01:49;100627.34;;;-1.03;100.00
14253;BME280;7210;51.502;10.722;2023-02-16T00:04:20;100628.31;;;-1.04;100.00
14253;BME280;7210;51.502;10.722;2023-02-16T00:06:49;100628.53;;;-1.07;100.00
14253;BME280;7210;51.502;10.722;2023-02-16T00:09:18;100612.69;;;-1.14;100.00
14253;BME280;7210;51.502;10.722;2023-02-16T00:11:46;100620.88;;;-1.09;100.00
14253;BME280;7210;51.502;10.722;2023-02-16T00:14:34;100619.97;;;-1.08;100.00
14253;BME280;7210;51.502;10.722;2023-02-16T00:17:03;100618.19;;;-1.07;100.00
14253;BME280;7210;51.502;10.722;2023-02-16T00:19:35;100616.81;;;-1.11;100.00
14253;BME280;7210;51.502;10.722;2023-02-16T00:22:04;100619.81;;;-1.06;100.00
14253;BME280;7210;51.502;10.722;2023-02-16T00:24:32;100613.81;;;-1.07;100.00
14253;BME280;7210;51.502;10.722;2023-02-16T00:27:00;100613.94;;;-1.08;100.00
14253;BME280;7210;51.502;10.722;2023-02-16T00:29:30;100604.41;;;-1.08;100.00
14253;BME280;7210;51.502;10.722;2023-02-16T00:32:00;100614.91;;;-1.09;100.00
14253;BME280;7210;51.502;10.722;2023-02-16T00:34:34;100617.38;;;-1.08;100.00
14253;BME280;7210;51.502;10.722;2023-02-16T00:37:04;100625.97;;;-1.07;100.00
14253;BME280;7210;51.502;10.722;2023-02-16T00:39:33;100614.06;;;-1.10;100.00
14253;BME280;7210;51.502;10.722;2023-02-16T00:42:03;100617.09;;;-1.05;100.00
14253;BME280;7210;51.502;10.722;2023-02-16T00:44:36;100636.09;;;-1.04;100.00
14253;BME280;7210;51.502;10.722;2023-02-16T00:47:18;100633.50;;;-1.04;100.00
14253;BME280;7210;51.502;10.722;2023-02-16T00:49:49;100633.50;;;-1.04;100.00
14253;BME280;7210;51.502;10.722;2023-02-16T00:52:32;100633.50;;;-1.04;100.00
14253;BME280;7210;51.502;10.722;2023-02-16T00:55:02;100637.97;;;-1.06;100.00
14253;BME280;7210;51.502;10.722;2023-02-16T00:57:34;100631.97;;;-1.07;100.00
14253;BME280;7210;51.502;10.722;2023-02-16T01:00:07;100629.63;;;-1.10;100.00
14253;BME280;7210;51.502;10.722;2023-02-16T01:02:38;100629.88;;;-1.13;100.00
14253;BME280;7210;51.502;10.722;2023-02-16T01:05:07;100630.16;;;-1.16;100.00
14253;BME280;7210;51.502;10.722;2023-02-16T01:07:34;100622.00;;;-1.11;100.00
14253;BME280;7210;51.502;10.722;2023-02-16T01:10:20;100609.69;;;-1.09;100.00
14253;BME280;7210;51.502;10.722;2023-02-16T01:13:06;100613.09;;;-1.09;100.00
14253;BME280;7210;51.502;10.722;2023-02-16T01:15:34;100613.81;;;-1.07;100.00
14253;BME280;7210;51.502;10.722;2023-02-16T01:18:02;100608.38;;;-1.04;100.00
14253;BME280;7210;51.502;10.722;2023-02-16T01:20:31;100603.28;;;-1.05;100.00
14253;BME280;7210;51.502;10.722;2023-02-16T01:23:00;100601.41;;;-1.03;100.00
14253;BME280;7210;51.502;10.722;2023-02-16T01:25:27;100595.50;;;-1.05;100.00
14253;BME280;7210;51.502;10.722;2023-02-16T01:27:54;100605.88;;;-1.05;100.00
14253;BME280;7210;51.502;10.722;2023-02-16T01:30:24;100591.16;;;-1.05;100.00
14253;BME280;7210;51.502;10.722;2023-02-16T01:32:51;100594.44;;;-1.03;100.00
14253;BME280;7210;51.502;10.722;2023-02-16T01:35:22;100600.47;;;-1.02;100.00
14253;BME280;7210;51.502;10.722;2023-02-16T01:37:51;100602.09;;;-1.01;100.00
14253;BME280;7210;51.502;10.722;2023-02-16T01:40:35;100602.66;;;-0.98;100.00
14253;BME280;7210;51.502;10.722;2023-02-16T01:43:09;100600.88;;;-0.97;100.00
14253;BME280;7210;51.502;10.722;2023-02-16T01:45:47;100590.09;;;-1.02;100.00
14253;BME280;7210;51.502;10.722;2023-02-16T01:48:24;100582.31;;;-1.02;100.00
14253;BME280;7210;51.502;10.722;2023-02-16T01:51:02;100581.84;;;-1.07;100.00
14253;BME280;7210;51.502;10.722;2023-02-16T01:53:40;100573.09;;;-1.16;100.00
14253;BME280;7210;51.502;10.722;2023-02-16T01:56:27;100560.75;;;-1.23;100.00
14253;BME280;7210;51.502;10.722;2023-02-16T01:59:08;100561.00;;;-1.26;100.00
14253;BME280;7210;51.502;10.722;2023-02-16T02:01:51;100559.59;;;-1.30;100.00
14253;BME280;7210;51.502;10.722;2023-02-16T02:04:25;100562.31;;;-1.32;100.00
14253;BME280;7210;51.502;10.722;2023-02-16T02:07:24;100559.03;;;-1.34;100.00
14253;BME280;7210;51.502;10.722;2023-02-16T02:10:04;100561.78;;;-1.35;100.00
14253;BME280;7210;51.502;10.722;2023-02-16T02:12:45;100557.13;;;-1.32;100.00
14253;BME280;7210;51.502;10.722;2023-02-16T02:15:20;100563.28;;;-1.33;100.00
14253;BME280;7210;51.502;10.722;2023-02-16T02:17:49;100555.25;;;-1.30;100.00
14253;BME280;7210;51.502;10.722;2023-02-16T02:20:25;100562.88;;;-1.28;100.00
14253;BME280;7210;51.502;10.722;2023-02-16T02:23:50;100552.53;;;-1.28;100.00
14253;BME280;7210;51.502;10.722;2023-02-16T02:26:57;100548.56;;;-1.32;100.00
14253;BME280;7210;51.502;10.722;2023-02-16T02:33:12;100549.19;;;-1.19;100.00
14253;BME280;7210;51.502;10.722;2023-02-16T02:35:54;100546.31;;;-1.16;100.00
14253;BME280;7210;51.502;10.722;2023-02-16T02:38:31;100540.75;;;-1.12;100.00
14253;BME280;7210;51.502;10.722;2023-02-16T02:41:11;100538.41;;;-1.15;100.00
14253;BME280;7210;51.502;10.722;2023-02-16T02:43:47;100536.63;;;-1.14;100.00
14253;BME280;7210;51.502;10.722;2023-02-16T02:46:23;100544.00;;;-1.10;100.00
14253;BME280;7210;51.502;10.722;2023-02-16T02:48:52;100539.66;;;-1.09;100.00
14253;BME280;7210;51.502;10.722;2023-02-16T02:51:20;100526.41;;;-1.16;100.00
14253;BME280;7210;51.502;10.722;2023-02-16T02:54:06;100524.88;;;-1.18;100.00
14253;BME280;7210;51.502;10.722;2023-02-16T02:57:01;100532.50;;;-1.26;100.00
14253;BME280;7210;51.502;10.722;2023-02-16T02:59:56;100538.88;;;-1.30;100.00
14253;BME280;7210;51.502;10.722;2023-02-16T03:02:45;100540.22;;;-1.36;100.00
14253;BME280;7210;51.502;10.722;2023-02-16T03:05:19;100533.38;;;-1.37;100.00
14253;BME280;7210;51.502;10.722;2023-02-16T03:07:51;100541.28;;;-1.38;100.00
14253;BME280;7210;51.502;10.722;2023-02-16T03:10:25;100544.31;;;-1.33;100.00
14253;BME280;7210;51.502;10.722;2023-02-16T03:13:39;100536.34;;;-1.41;100.00
14253;BME280;7210;51.502;10.722;2023-02-16T03:16:16;100529.19;;;-1.49;100.00
14253;BME280;7210;51.502;10.722;2023-02-16T03:19:04;100539.28;;;-1.55;100.00
14253;BME280;7210;51.502;10.722;2023-02-16T03:21:50;100549.91;;;-1.58;100.00
14253;BME280;7210;51.502;10.722;2023-02-16T03:24:35;100539.53;;;-1.58;100.00
14253;BME280;7210;51.502;10.722;2023-02-16T03:27:25;100532.00;;;-1.61;100.00
14253;BME280;7210;51.502;10.722;2023-02-16T03:30:14;100532.50;;;-1.67;100.00
14253;BME280;7210;51.502;10.722;2023-02-16T03:32:44;100530.16;;;-1.70;100.00
14253;BME280;7210;51.502;10.722;2023-02-16T03:35:12;100528.78;;;-1.74;100.00
14253;BME280;7210;51.502;10.722;2023-02-16T03:37:41;100532.28;;;-1.75;100.00
14253;BME280;7210;51.502;10.722;2023-02-16T03:40:13;100531.22;;;-1.73;100.00
14253;BME280;7210;51.502;10.722;2023-02-16T03:42:56;100532.56;;;-1.78;100.00
14253;BME280;7210;51.502;10.722;2023-02-16T03:45:25;100515.28;;;-1.89;100.00
14253;BME280;7210;51.502;10.722;2023-02-16T03:47:54;100528.13;;;-1.87;100.00
14253;BME280;7210;51.502;10.722;2023-02-16T03:50:21;100517.78;;;-1.87;100.00
14253;BME280;7210;51.502;10.722;2023-02-16T03:52:52;100516.13;;;-1.88;100.00
14253;BME280;7210;51.502;10.722;2023-02-16T03:55:32;100520.38;;;-1.87;100.00
14253;BME280;7210;51.502;10.722;2023-02-16T03:57:59;100511.19;;;-1.91;100.00
14253;BME280;7210;51.502;10.722;2023-02-16T04:00:27;100494.19;;;-2.05;100.00
14253;BME280;7210;51.502;10.722;2023-02-16T04:02:56;100513.53;;;-1.88;100.00
14253;BME280;7210;51.502;10.722;2023-02-16T04:05:23;100522.47;;;-1.81;100.00
14253;BME280;7210;51.502;10.722;2023-02-16T04:07:50;100521.88;;;-1.85;100.00
14253;BME280;7210;51.502;10.722;2023-02-16T04:10:18;100519.53;;;-1.88;100.00
14253;BME280;7210;51.502;10.722;2023-02-16T04:12:45;100517.50;;;-1.84;100.00
14253;BME280;7210;51.502;10.722;2023-02-16T04:15:15;100515.56;;;-1.92;100.00
14253;BME280;7210;51.502;10.722;2023-02-16T04:17:42;100523.19;;;-1.90;100.00
14253;BME280;7210;51.502;10.722;2023-02-16T04:20:15;100517.19;;;-1.91;100.00
14253;BME280;7210;51.502;10.722;2023-02-16T04:22:43;100522.94;;;-1.87;100.00
14253;BME280;7210;51.502;10.722;2023-02-16T04:25:12;100513.19;;;-1.95;100.00
14253;BME280;7210;51.502;10.722;2023-02-16T04:27:41;100515.47;;;-2.01;100.00
14253;BME280;7210;51.502;10.722;2023-02-16T04:30:12;100507.41;;;-2.08;100.00
14253;BME280;7210;51.502;10.722;2023-02-16T04:32:39;100507.78;;;-2.12;100.00
14253;BME280;7210;51.502;10.722;2023-02-16T04:35:08;100506.34;;;-2.16;100.00
14253;BME280;7210;51.502;10.722;2023-02-16T04:37:36;100500.50;;;-2.18;100.00
14253;BME280;7210;51.502;10.722;2023-02-16T04:40:06;100511.63;;;-2.07;100.00
14253;BME280;7210;51.502;10.722;2023-02-16T04:42:33;100513.84;;;-2.02;100.00
14253;BME280;7210;51.502;10.722;2023-02-16T04:45:03;100510.78;;;-2.07;100.00
14253;BME280;7210;51.502;10.722;2023-02-16T04:47:30;100500.13;;;-2.14;100.00
14253;BME280;7210;51.502;10.722;2023-02-16T04:49:57;100495.31;;;-2.18;100.00
14253;BME280;7210;51.502;10.722;2023-02-16T04:52:24;100501.81;;;-2.24;100.00
14253;BME280;7210;51.502;10.722;2023-02-16T04:54:53;100494.63;;;-2.20;100.00
14253;BME280;7210;51.502;10.722;2023-02-16T04:57:20;100502.72;;;-2.25;100.00
14253;BME280;7210;51.502;10.722;2023-02-16T04:59:48;100496.16;;;-2.29;100.00
14253;BME280;7210;51.502;10.722;2023-02-16T05:02:16;100498.88;;;-2.30;100.00
14253;BME280;7210;51.502;10.722;2023-02-16T05:04:43;100505.94;;;-2.32;100.00
14253;BME280;7210;51.502;10.722;2023-02-16T05:07:10;100489.84;;;-2.36;100.00
14253;BME280;7210;51.502;10.722;2023-02-16T05:09:37;100495.38;;;-2.40;100.00
14253;BME280;7210;51.502;10.722;2023-02-16T05:12:06;100498.91;;;-2.41;100.00
14253;BME280;7210;51.502;10.722;2023-02-16T05:14:50;100493.38;;;-2.37;100.00
14253;BME280;7210;51.502;10.722;2023-02-16T05:17:20;100494.44;;;-2.39;100.00
14253;BME280;7210;51.502;10.722;2023-02-16T05:19:50;100487.88;;;-2.43;100.00
14253;BME280;7210;51.502;10.722;2023-02-16T05:22:18;100489.75;;;-2.45;100.00
14253;BME280;7210;51.502;10.722;2023-02-16T05:24:45;100495.19;;;-2.48;100.00
14253;BME280;7210;51.502;10.722;2023-02-16T05:27:16;100485.78;;;-2.49;100.00
14253;BME280;7210;51.502;10.722;2023-02-16T05:29:44;100503.63;;;-2.46;100.00
14253;BME280;7210;51.502;10.722;2023-02-16T05:32:11;100507.16;;;-2.47;100.00
14253;BME280;7210;51.502;10.722;2023-02-16T05:34:39;100510.69;;;-2.48;100.00
14253;BME280;7210;51.502;10.722;2023-02-16T05:37:06;100504.09;;;-2.52;100.00
14253;BME280;7210;51.502;10.722;2023-02-16T05:39:33;100502.47;;;-2.53;100.00
14253;BME280;7210;51.502;10.722;2023-02-16T05:42:00;100502.25;;;-2.50;100.00
14253;BME280;7210;51.502;10.722;2023-02-16T05:44:29;100510.97;;;-2.51;100.00
14253;BME280;7210;51.502;10.722;2023-02-16T05:46:56;100506.59;;;-2.51;100.00
14253;BME280;7210;51.502;10.722;2023-02-16T05:49:23;100504.84;;;-2.50;100.00
14253;BME280;7210;51.502;10.722;2023-02-16T05:51:51;100496.22;;;-2.51;100.00
14253;BME280;7210;51.502;10.722;2023-02-16T05:54:18;100486.00;;;-2.52;100.00
14253;BME280;7210;51.502;10.722;2023-02-16T05:56:48;100488.59;;;-2.52;100.00
14253;BME280;7210;51.502;10.722;2023-02-16T05:59:16;100443.97;;;-2.76;100.00
14253;BME280;7210;51.502;10.722;2023-02-16T06:01:45;100482.94;;;-2.46;100.00
14253;BME280;7210;51.502;10.722;2023-02-16T06:04:13;100488.59;;;-2.52;100.00
14253;BME280;7210;51.502;10.722;2023-02-16T06:06:42;100482.50;;;-2.51;100.00
14253;BME280;7210;51.502;10.722;2023-02-16T06:09:10;100479.31;;;-2.55;100.00
14253;BME280;7210;51.502;10.722;2023-02-16T06:11:37;100485.88;;;-2.51;100.00
14253;BME280;7210;51.502;10.722;2023-02-16T06:14:07;100504.69;;;-2.49;100.00
14253;BME280;7210;51.502;10.722;2023-02-16T06:16:38;100483.66;;;-2.55;100.00
14253;BME280;7210;51.502;10.722;2023-02-16T06:19:08;100485.66;;;-2.59;100.00
14253;BME280;7210;51.502;10.722;2023-02-16T06:21:36;100484.16;;;-2.61;100.00
14253;BME280;7210;51.502;10.722;2023-02-16T06:24:05;100479.13;;;-2.63;100.00
14253;BME280;7210;51.502;10.722;2023-02-16T06:26:33;100477.59;;;-2.65;100.00
14253;BME280;7210;51.502;10.722;2023-02-16T06:29:01;100482.97;;;-2.68;100.00
14253;BME280;7210;51.502;10.722;2023-02-16T06:31:28;100489.47;;;-2.74;100.00
14253;BME280;7210;51.502;10.722;2023-02-16T06:33:55;100480.19;;;-2.76;100.00
14253;BME280;7210;51.502;10.722;2023-02-16T06:36:24;100473.72;;;-2.71;100.00
14253;BME280;7210;51.502;10.722;2023-02-16T06:38:51;100477.22;;;-2.72;100.00
14253;BME280;7210;51.502;10.722;2023-02-16T06:41:18;100482.41;;;-2.72;100.00
14253;BME280;7210;51.502;10.722;2023-02-16T06:43:58;100479.81;;;-2.72;100.00
14253;BME280;7210;51.502;10.722;2023-02-16T06:46:26;100472.31;;;-2.75;100.00
14253;BME280;7210;51.502;10.722;2023-02-16T06:48:53;100486.03;;;-2.63;100.00
14253;BME280;7210;51.502;10.722;2023-02-16T06:51:23;100496.13;;;-2.60;100.00
14253;BME280;7210;51.502;10.722;2023-02-16T06:53:50;100500.13;;;-2.56;100.00
14253;BME280;7210;51.502;10.722;2023-02-16T06:56:19;100496.72;;;-2.57;100.00
14253;BME280;7210;51.502;10.722;2023-02-16T06:58:47;100508.59;;;-2.54;100.00
14253;BME280;7210;51.502;10.722;2023-02-16T07:01:16;100503.63;;;-2.46;100.00
14253;BME280;7210;51.502;10.722;2023-02-16T07:03:49;100512.59;;;-2.50;100.00
14253;BME280;7210;51.502;10.722;2023-02-16T07:06:16;100521.06;;;-2.48;100.00
14253;BME280;7210;51.502;10.722;2023-02-16T07:08:46;100518.09;;;-2.44;100.00
14253;BME280;7210;51.502;10.722;2023-02-16T07:11:14;100514.09;;;-2.37;100.00
14253;BME280;7210;51.502;10.722;2023-02-16T07:13:42;100503.16;;;-2.40;100.00
14253;BME280;7210;51.502;10.722;2023-02-16T07:16:10;100492.38;;;-2.56;100.00
14253;BME280;7210;51.502;10.722;2023-02-16T07:18:38;100504.09;;;-2.41;100.00
14253;BME280;7210;51.502;10.722;2023-02-16T07:21:06;100512.66;;;-2.41;100.00
14253;BME280;7210;51.502;10.722;2023-02-16T07:23:33;100504.78;;;-2.39;100.00
14253;BME280;7210;51.502;10.722;2023-02-16T07:26:02;100504.69;;;-2.38;100.00
14253;BME280;7210;51.502;10.722;2023-02-16T07:28:30;100498.06;;;-2.31;100.00
14253;BME280;7210;51.502;10.722;2023-02-16T07:30:57;100501.34;;;-2.29;100.00
14253;BME280;7210;51.502;10.722;2023-02-16T07:33:25;100501.50;;;-2.10;100.00
14253;BME280;7210;51.502;10.722;2023-02-16T07:35:52;100507.72;;;-2.01;100.00
14253;BME280;7210;51.502;10.722;2023-02-16T07:38:19;100512.81;;;-1.90;100.00
14253;BME280;7210;51.502;10.722;2023-02-16T07:40:46;100515.59;;;-1.82;100.00
14253;BME280;7210;51.502;10.722;2023-02-16T07:43:14;100521.34;;;-1.79;100.00
14253;BME280;7210;51.502;10.722;2023-02-16T07:45:43;100518.16;;;-1.71;100.00
14253;BME280;7210;51.502;10.722;2023-02-16T07:48:11;100508.94;;;-1.64;100.00
14253;BME280;7210;51.502;10.722;2023-02-16T07:50:42;100512.50;;;-1.56;100.00
14253;BME280;7210;51.502;10.722;2023-02-16T07:53:09;100521.03;;;-1.44;100.00
14253;BME280;7210;51.502;10.722;2023-02-16T07:55:38;100520.31;;;-1.35;100.00
14253;BME280;7210;51.502;10.722;2023-02-16T07:58:06;100520.31;;;-1.26;100.00
14253;BME280;7210;51.502;10.722;2023-02-16T08:00:35;100526.41;;;-1.16;100.00
14253;BME280;7210;51.502;10.722;2023-02-16T08:03:02;100529.97;;;-1.07;100.00
14253;BME280;7210;51.502;10.722;2023-02-16T08:05:32;100530.59;;;-0.94;100.00
14253;BME280;7210;51.502;10.722;2023-02-16T08:08:00;100531.44;;;-0.84;100.00
14253;BME280;7210;51.502;10.722;2023-02-16T08:10:27;100525.44;;;-0.75;100.00
14253;BME280;7210;51.502;10.722;2023-02-16T08:12:54;100524.09;;;-0.70;100.00
14253;BME280;7210;51.502;10.722;2023-02-16T08:15:26;100548.16;;;-0.58;100.00
14253;BME280;7210;51.502;10.722;2023-02-16T08:17:55;100539.63;;;-0.49;100.00
14253;BME280;7210;51.502;10.722;2023-02-16T08:20:22;100543.31;;;-0.42;100.00
14253;BME280;7210;51.502;10.722;2023-02-16T08:22:53;100542.75;;;-0.36;100.00
14253;BME280;7210;51.502;10.722;2023-02-16T08:25:20;100537.03;;;-0.30;100.00
14253;BME280;7210;51.502;10.722;2023-02-16T08:27:47;100550.16;;;-0.22;100.00
14253;BME280;7210;51.502;10.722;2023-02-16T08:30:21;100551.84;;;-0.03;100.00
14253;BME280;7210;51.502;10.722;2023-02-16T08:32:56;100548.31;;;0.08;100.00
14253;BME280;7210;51.502;10.722;2023-02-16T08:35:26;100544.31;;;0.13;100.00
14253;BME280;7210;51.502;10.722;2023-02-16T08:37:53;100547.72;;;0.23;100.00
14253;BME280;7210;51.502;10.722;2023-02-16T08:40:20;100550.75;;;0.28;100.00
14253;BME280;7210;51.502;10.722;2023-02-16T08:42:49;100544.19;;;0.34;100.00
14253;BME280;7210;51.502;10.722;2023-02-16T08:45:16;100540.06;;;0.41;100.00
14253;BME280;7210;51.502;10.722;2023-02-16T08:47:44;100553.31;;;0.57;100.00
14253;BME280;7210;51.502;10.722;2023-02-16T08:50:13;100547.41;;;0.64;100.00
14253;BME280;7210;51.502;10.722;2023-02-16T08:52:41;100553.44;;;0.74;100.00
14253;BME280;7210;51.502;10.722;2023-02-16T08:55:08;100556.16;;;0.82;100.00
14253;BME280;7210;51.502;10.722;2023-02-16T08:57:35;100547.63;;;0.90;100.00
14253;BME280;7210;51.502;10.722;2023-02-16T09:00:04;100546.75;;;0.99;100.00
14253;BME280;7210;51.502;10.722;2023-02-16T09:02:49;100546.69;;;1.18;100.00
14253;BME280;7210;51.502;10.722;2023-02-16T09:05:17;100553.34;;;1.30;100.00
14253;BME280;7210;51.502;10.722;2023-02-16T09:07:44;100557.66;;;1.48;100.00
14253;BME280;7210;51.502;10.722;2023-02-16T09:10:13;100553.81;;;1.70;100.00
14253;BME280;7210;51.502;10.722;2023-02-16T09:12:40;100535.13;;;1.74;100.00
14253;BME280;7210;51.502;10.722;2023-02-16T09:15:08;100535.59;;;1.87;100.00
14253;BME280;7210;51.502;10.722;2023-02-16T09:17:37;100523.59;;;1.94;100.00
14253;BME280;7210;51.502;10.722;2023-02-16T09:20:06;100520.09;;;2.03;100.00
14253;BME280;7210;51.502;10.722;2023-02-16T09:22:34;100511.53;;;2.11;100.00
14253;BME280;7210;51.502;10.722;2023-02-16T09:25:03;100504.25;;;2.14;100.00
14253;BME280;7210;51.502;10.722;2023-02-16T09:27:37;100489.25;;;2.16;100.00
14253;BME280;7210;51.502;10.722;2023-02-16T09:30:06;100485.06;;;2.23;100.00
14253;BME280;7210;51.502;10.722;2023-02-16T09:32:38;100490.22;;;2.33;100.00
14253;BME280;7210;51.502;10.722;2023-02-16T09:35:07;100479.00;;;2.40;100.00
14253;BME280;7210;51.502;10.722;2023-02-16T09:37:36;100473.88;;;2.56;100.00
14253;BME280;7210;51.502;10.722;2023-02-16T09:40:04;100459.91;;;2.65;100.00
14253;BME280;7210;51.502;10.722;2023-02-16T09:42:49;100453.78;;;2.82;100.00
14253;BME280;7210;51.502;10.722;2023-02-16T09:45:21;100448.78;;;2.89;100.00
14253;BME280;7210;51.502;10.722;2023-02-16T09:47:51;100440.09;;;2.88;100.00
14253;BME280;7210;51.502;10.722;2023-02-16T09:50:22;100427.41;;;2.93;100.00
14253;BME280;7210;51.502;10.722;2023-02-16T09:52:57;100424.31;;;2.98;100.00
14253;BME280;7210;51.502;10.722;2023-02-16T09:55:33;100423.75;;;3.20;100.00
14253;BME280;7210;51.502;10.722;2023-02-16T09:58:13;100419.22;;;3.46;100.00
14253;BME280;7210;51.502;10.722;2023-02-16T10:00:48;100412.53;;;3.67;100.00
14253;BME280;7210;51.502;10.722;2023-02-16T10:03:35;100405.69;;;3.90;100.00
14253;BME280;7210;51.502;10.722;2023-02-16T10:06:33;100392.94;;;3.95;100.00
14253;BME280;7210;51.502;10.722;2023-02-16T10:09:10;100389.00;;;3.99;100.00
14253;BME280;7210;51.502;10.722;2023-02-16T10:11:44;100387.38;;;4.06;100.00
14253;BME280;7210;51.502;10.722;2023-02-16T10:14:28;100373.97;;;4.01;100.00
14253;BME280;7210;51.502;10.722;2023-02-16T10:17:10;100366.41;;;4.14;100.00
14253;BME280;7210;51.502;10.722;2023-02-16T10:19:46;100358.53;;;4.30;100.00
14253;BME280;7210;51.502;10.722;2023-02-16T10:22:25;100348.63;;;4.64;100.00
14253;BME280;7210;51.502;10.722;2023-02-16T10:25:01;100340.31;;;4.83;100.00
14253;BME280;7210;51.502;10.722;2023-02-16T10:27:37;100330.59;;;4.99;100.00
14253;BME280;7210;51.502;10.722;2023-02-16T10:30:13;100323.91;;;5.19;100.00
14253;BME280;7210;51.502;10.722;2023-02-16T10:32:55;100319.72;;;5.33;100.00
14253;BME280;7210;51.502;10.722;2023-02-16T10:35:31;100303.94;;;5.41;100.00
14253;BME280;7210;51.502;10.722;2023-02-16T10:38:09;100298.44;;;5.50;100.00
14253;BME280;7210;51.502;10.722;2023-02-16T10:40:51;100294.22;;;5.64;100.00
14253;BME280;7210;51.502;10.722;2023-02-16T10:43:34;100285.81;;;5.68;100.00
14253;BME280;7210;51.502;10.722;2023-02-16T10:46:10;100284.16;;;5.90;100.00
14253;BME280;7210;51.502;10.722;2023-02-16T10:48:42;100270.78;;;5.99;100.00
14253;BME280;7210;51.502;10.722;2023-02-16T10:51:15;100259.91;;;6.17;100.00
14253;BME280;7210;51.502;10.722;2023-02-16T10:53:48;100251.41;;;6.29;100.00
14253;BME280;7210;51.502;10.722;2023-02-16T10:56:37;100249.00;;;6.49;100.00
14253;BME280;7210;51.502;10.722;2023-02-16T10:59:15;100231.75;;;6.61;100.00
14253;BME280;7210;51.502;10.722;2023-02-16T11:01:47;100235.53;;;6.73;100.00
14253;BME280;7210;51.502;10.722;2023-02-16T11:04:47;100228.78;;;6.85;99.13
14253;BME280;7210;51.502;10.722;2023-02-16T11:07:19;100220.03;;;6.99;98.27
14253;BME280;7210;51.502;10.722;2023-02-16T11:09:49;100221.81;;;7.19;97.56
14253;BME280;7210;51.502;10.722;2023-02-16T11:12:28;100216.38;;;7.41;96.46
14253;BME280;7210;51.502;10.722;2023-02-16T11:15:02;100202.03;;;7.44;95.41
14253;BME280;7210;51.502;10.722;2023-02-16T11:17:46;100183.59;;;7.44;95.00
14253;BME280;7210;51.502;10.722;2023-02-16T11:20:26;100169.00;;;7.41;94.23
14253;BME280;7210;51.502;10.722;2023-02-16T11:23:13;100188.94;;;7.57;93.96
14253;BME280;7210;51.502;10.722;2023-02-16T11:25:41;100196.75;;;7.71;93.01
14253;BME280;7210;51.502;10.722;2023-02-16T11:28:27;100179.63;;;7.88;92.47
14253;BME280;7210;51.502;10.722;2023-02-16T11:31:03;100173.41;;;8.02;91.43
14253;BME280;7210;51.502;10.722;2023-02-16T11:33:37;100157.81;;;8.07;90.68
14253;BME280;7210;51.502;10.722;2023-02-16T11:36:20;100145.91;;;8.11;89.85
14253;BME280;7210;51.502;10.722;2023-02-16T11:39:00;100126.81;;;8.09;89.00
14253;BME280;7210;51.502;10.722;2023-02-16T11:41:29;100120.84;;;8.22;88.02
14253;BME280;7210;51.502;10.722;2023-02-16T11:44:01;100104.22;;;8.21;87.72
14253;BME280;7210;51.502;10.722;2023-02-16T11:46:38;100125.53;;;8.26;87.69
14253;BME280;7210;51.502;10.722;2023-02-16T11:49:32;100133.66;;;8.44;86.94
14253;BME280;7210;51.502;10.722;2023-02-16T11:51:59;100124.16;;;8.56;86.39
14253;BME280;7210;51.502;10.722;2023-02-16T11:54:27;100115.25;;;8.57;85.74
14253;BME280;7210;51.502;10.722;2023-02-16T11:57:03;100092.94;;;8.53;85.34
14253;BME280;7210;51.502;10.722;2023-02-16T11:59:36;100093.16;;;8.58;85.02
14253;BME280;7210;51.502;10.722;2023-02-16T12:02:35;100082.59;;;8.58;84.34
14253;BME280;7210;51.502;10.722;2023-02-16T12:05:26;100079.16;;;8.51;84.24
14253;BME280;7210;51.502;10.722;2023-02-16T12:08:20;100039.03;;;8.49;83.69
14253;BME280;7210;51.502;10.722;2023-02-16T12:11:13;100062.53;;;8.44;83.68
14253;BME280;7210;51.502;10.722;2023-02-16T12:13:54;100105.94;;;8.68;83.75
14253;BME280;7210;51.502;10.722;2023-02-16T12:16:37;100111.63;;;8.78;83.47
14253;BME280;7210;51.502;10.722;2023-02-16T12:19:31;100144.69;;;9.06;83.28
14253;BME280;7210;51.502;10.722;2023-02-16T12:22:19;100102.25;;;9.27;81.60
14253;BME280;7210;51.502;10.722;2023-02-16T12:25:02;100074.19;;;9.52;80.63
14253;BME280;7210;51.502;10.722;2023-02-16T12:27:37;100054.25;;;9.56;80.03
14253;BME280;7210;51.502;10.722;2023-02-16T12:30:22;100054.63;;;9.66;79.71
14253;BME280;7210;51.502;10.722;2023-02-16T12:33:10;100088.25;;;9.84;79.69
14253;BME280;7210;51.502;10.722;2023-02-16T12:35:59;100076.84;;;9.96;78.98
14253;BME280;7210;51.502;10.722;2023-02-16T12:38:47;100021.97;;;9.98;77.74
14253;BME280;7210;51.502;10.722;2023-02-16T12:41:32;100004.06;;;10.00;77.17
14253;BME280;7210;51.502;10.722;2023-02-16T12:44:11;99936.03;;;9.65;76.75
14253;BME280;7210;51.502;10.722;2023-02-16T12:46:42;99968.63;;;9.83;76.57
14253;BME280;7210;51.502;10.722;2023-02-16T12:49:20;99971.19;;;9.96;75.86
14253;BME280;7210;51.502;10.722;2023-02-16T12:51:53;99953.31;;;9.98;75.33
14253;BME280;7210;51.502;10.722;2023-02-16T12:54:27;99925.28;;;9.97;74.89
14253;BME280;7210;51.502;10.722;2023-02-16T12:57:02;99909.44;;;9.97;74.26
14253;BME280;7210;51.502;10.722;2023-02-16T12:59:38;99918.19;;;9.91;74.12
14253;BME280;7210;51.502;10.722;2023-02-16T13:02:15;99950.06;;;9.96;74.32
14253;BME280;7210;51.502;10.722;2023-02-16T13:04:51;99930.13;;;10.00;73.86
14253;BME280;7210;51.502;10.722;2023-02-16T13:07:29;99925.66;;;10.01;73.56
14253;BME280;7210;51.502;10.722;2023-02-16T13:10:02;99949.44;;;10.01;73.57
14253;BME280;7210;51.502;10.722;2023-02-16T13:12:35;99944.69;;;10.09;73.40
14253;BME280;7210;51.502;10.722;2023-02-16T13:15:12;99971.03;;;10.22;73.22
14253;BME280;7210;51.502;10.722;2023-02-16T13:17:46;100006.69;;;10.38;73.40
14253;BME280;7210;51.502;10.722;2023-02-16T13:20:21;99945.03;;;10.44;72.25
14253;BME280;7210;51.502;10.722;2023-02-16T13:26:31;99901.59;;;10.15;71.76